Bicycle Lake Army Air Field
KBYS : now visible

Airfield :











YOU CAN JOIN US ON...

 
LOGIN :

Register | Disclaimer

   EN    FR    IT 

 









Legend :    VFR   Marginal VFR   IFR   Intensive IFR   Very Intensive IFR
Visi :
Ceiling :
>= 8 km
>= 3000ft
5 to 8 km
1000 to 3000 ft
1500m to 5 km
500 to 1000 ft
800 to 1500m
200 to 500 ft
< 800m
< 200 ft
Symbols :   Thunderstorms  Fog  Heavy snow  Heavy precipitations  Wind > 20 kt






- Airport Elevation : 2350 ft


KBYS - Bicycle Lake Army Air Field

CURRENT METAR :
  • 190455Z AUTO 21016KT 10SM CLR 35/07 A2994 RMK AO2 SLP102 T03520073 $

EXPIRED METARs :
  • 190355Z AUTO 21014KT 10SM CLR 36/10 A2992 RMK AO2 SLP095 T03600102 $
  • 190314Z AUTO 21016G22KT 10SM SCT140 37/09 A2991 RMK AO2 WSHFT 06 SLP093 $
  • 190255Z AUTO 18014KT 9SM FEW140 37/10 A2991 RMK AO2 PK WND 15028/41 SLP093 T03690102 53002 $
  • 190155Z AUTO 00000KT 10SM FEW150 39/10 A2990 RMK AO2 SLP089 T03860100 $
  • 190055Z AUTO 01009KT 10SM CLR 37/13 A2989 RMK AO2 SLP088 T03710125 $

Expired Forecast.
KZLA FIR / North America



MET'MAP, your aeronautical weather chart ! - Copyright ORBIFLY December 2007 - Disclaimer

ORBIFLY MET'MAP TEAM :

Programming & Development : Alexandra Zaïnal
Original concept : Baudouin d'Aumeries
Technical & hardware support : Manuel Goepfert
Assistance : Marc-Olivier Méhu




SOURCES & CREDITS :

   NOAA       Earth
Advisory